sensor_id;sensor_type;location;lat;lon;timestamp;P1;durP1;ratioP1;P2;durP2;ratioP2
2680;SDS011;1350;42.134;24.708;2022-09-09T00:00:22;17.27;;;15.60;;
2680;SDS011;1350;42.134;24.708;2022-09-09T00:02:52;19.00;;;15.77;;
2680;SDS011;1350;42.134;24.708;2022-09-09T00:05:28;19.80;;;17.13;;
2680;SDS011;1350;42.134;24.708;2022-09-09T00:07:59;19.13;;;17.13;;
2680;SDS011;1350;42.134;24.708;2022-09-09T00:10:31;25.73;;;16.60;;
2680;SDS011;1350;42.134;24.708;2022-09-09T00:13:02;22.90;;;17.00;;
2680;SDS011;1350;42.134;24.708;2022-09-09T00:15:37;22.50;;;17.97;;
2680;SDS011;1350;42.134;24.708;2022-09-09T00:18:12;21.33;;;14.50;;
2680;SDS011;1350;42.134;24.708;2022-09-09T00:20:52;17.90;;;15.73;;
2680;SDS011;1350;42.134;24.708;2022-09-09T00:23:24;19.10;;;17.03;;
2680;SDS011;1350;42.134;24.708;2022-09-09T00:25:57;22.07;;;16.80;;
2680;SDS011;1350;42.134;24.708;2022-09-09T00:28:30;22.87;;;17.90;;
2680;SDS011;1350;42.134;24.708;2022-09-09T00:31:07;16.77;;;15.00;;
2680;SDS011;1350;42.134;24.708;2022-09-09T00:33:39;19.40;;;16.07;;
2680;SDS011;1350;42.134;24.708;2022-09-09T00:36:12;19.70;;;17.63;;
2680;SDS011;1350;42.134;24.708;2022-09-09T00:38:42;18.90;;;16.80;;
2680;SDS011;1350;42.134;24.708;2022-09-09T00:41:11;17.40;;;15.60;;
2680;SDS011;1350;42.134;24.708;2022-09-09T00:43:46;19.67;;;16.93;;
2680;SDS011;1350;42.134;24.708;2022-09-09T00:46:32;19.13;;;15.70;;
2680;SDS011;1350;42.134;24.708;2022-09-09T00:49:13;18.40;;;16.40;;
2680;SDS011;1350;42.134;24.708;2022-09-09T00:51:48;18.37;;;16.47;;
2680;SDS011;1350;42.134;24.708;2022-09-09T00:54:29;19.40;;;16.63;;
2680;SDS011;1350;42.134;24.708;2022-09-09T00:57:07;18.77;;;16.50;;
2680;SDS011;1350;42.134;24.708;2022-09-09T00:59:48;19.07;;;17.03;;
2680;SDS011;1350;42.134;24.708;2022-09-09T01:02:21;20.63;;;18.53;;
2680;SDS011;1350;42.134;24.708;2022-09-09T01:04:54;20.07;;;16.50;;
2680;SDS011;1350;42.134;24.708;2022-09-09T01:07:24;22.03;;;16.83;;
2680;SDS011;1350;42.134;24.708;2022-09-09T01:09:52;18.13;;;16.33;;
2680;SDS011;1350;42.134;24.708;2022-09-09T01:12:29;22.43;;;19.07;;
2680;SDS011;1350;42.134;24.708;2022-09-09T01:15:08;19.57;;;17.23;;
2680;SDS011;1350;42.134;24.708;2022-09-09T01:17:40;27.27;;;17.20;;
2680;SDS011;1350;42.134;24.708;2022-09-09T01:20:19;20.37;;;17.93;;
2680;SDS011;1350;42.134;24.708;2022-09-09T01:22:56;19.60;;;16.53;;
2680;SDS011;1350;42.134;24.708;2022-09-09T01:28:53;19.00;;;17.10;;
2680;SDS011;1350;42.134;24.708;2022-09-09T01:31:21;23.00;;;18.37;;
2680;SDS011;1350;42.134;24.708;2022-09-09T01:33:54;20.37;;;16.40;;
2680;SDS011;1350;42.134;24.708;2022-09-09T01:36:25;19.27;;;16.10;;
2680;SDS011;1350;42.134;24.708;2022-09-09T01:38:56;17.53;;;15.80;;
2680;SDS011;1350;42.134;24.708;2022-09-09T01:41:23;23.23;;;14.90;;
2680;SDS011;1350;42.134;24.708;2022-09-09T01:43:52;21.40;;;15.63;;
2680;SDS011;1350;42.134;24.708;2022-09-09T01:46:21;21.70;;;16.40;;
2680;SDS011;1350;42.134;24.708;2022-09-09T01:48:49;17.27;;;15.47;;
2680;SDS011;1350;42.134;24.708;2022-09-09T01:51:17;18.50;;;16.70;;
2680;SDS011;1350;42.134;24.708;2022-09-09T01:53:44;16.53;;;14.83;;
2680;SDS011;1350;42.134;24.708;2022-09-09T01:56:16;19.17;;;15.37;;
2680;SDS011;1350;42.134;24.708;2022-09-09T01:59:00;17.80;;;16.10;;
2680;SDS011;1350;42.134;24.708;2022-09-09T02:01:40;18.03;;;16.23;;
2680;SDS011;1350;42.134;24.708;2022-09-09T02:04:22;18.43;;;14.80;;
2680;SDS011;1350;42.134;24.708;2022-09-09T02:06:57;21.57;;;15.63;;
2680;SDS011;1350;42.134;24.708;2022-09-09T02:09:26;17.70;;;14.97;;
2680;SDS011;1350;42.134;24.708;2022-09-09T02:11:55;18.00;;;16.10;;
2680;SDS011;1350;42.134;24.708;2022-09-09T02:14:30;17.47;;;15.70;;
2680;SDS011;1350;42.134;24.708;2022-09-09T02:17:01;34.27;;;16.90;;
2680;SDS011;1350;42.134;24.708;2022-09-09T02:19:34;18.33;;;16.40;;
2680;SDS011;1350;42.134;24.708;2022-09-09T02:22:05;18.53;;;15.27;;
2680;SDS011;1350;42.134;24.708;2022-09-09T02:24:33;19.30;;;16.40;;
2680;SDS011;1350;42.134;24.708;2022-09-09T02:27:03;17.23;;;15.60;;
2680;SDS011;1350;42.134;24.708;2022-09-09T02:29:36;17.87;;;16.03;;
2680;SDS011;1350;42.134;24.708;2022-09-09T02:32:06;16.20;;;14.50;;
2680;SDS011;1350;42.134;24.708;2022-09-09T02:34:39;17.73;;;15.93;;
2680;SDS011;1350;42.134;24.708;2022-09-09T02:37:10;18.23;;;16.33;;
2680;SDS011;1350;42.134;24.708;2022-09-09T02:39:38;17.40;;;15.60;;
2680;SDS011;1350;42.134;24.708;2022-09-09T02:42:05;17.77;;;16.00;;
2680;SDS011;1350;42.134;24.708;2022-09-09T02:44:32;19.57;;;17.67;;
2680;SDS011;1350;42.134;24.708;2022-09-09T02:47:11;22.53;;;18.07;;
2680;SDS011;1350;42.134;24.708;2022-09-09T02:49:50;22.40;;;17.90;;
2680;SDS011;1350;42.134;24.708;2022-09-09T02:52:30;21.40;;;16.67;;
2680;SDS011;1350;42.134;24.708;2022-09-09T02:55:06;20.47;;;16.33;;
2680;SDS011;1350;42.134;24.708;2022-09-09T02:57:38;18.60;;;16.07;;
2680;SDS011;1350;42.134;24.708;2022-09-09T03:00:06;22.57;;;16.07;;
2680;SDS011;1350;42.134;24.708;2022-09-09T03:02:36;17.20;;;15.23;;
2680;SDS011;1350;42.134;24.708;2022-09-09T03:05:03;19.63;;;16.67;;
2680;SDS011;1350;42.134;24.708;2022-09-09T03:07:31;20.77;;;15.33;;
2680;SDS011;1350;42.134;24.708;2022-09-09T03:09:58;26.27;;;16.87;;
2680;SDS011;1350;42.134;24.708;2022-09-09T03:12:25;21.83;;;15.47;;
2680;SDS011;1350;42.134;24.708;2022-09-09T03:14:52;38.20;;;17.60;;
2680;SDS011;1350;42.134;24.708;2022-09-09T03:17:18;20.60;;;14.97;;
2680;SDS011;1350;42.134;24.708;2022-09-09T03:19:47;17.90;;;16.10;;
2680;SDS011;1350;42.134;24.708;2022-09-09T03:22:15;18.17;;;16.23;;
2680;SDS011;1350;42.134;24.708;2022-09-09T03:24:42;22.33;;;17.53;;
2680;SDS011;1350;42.134;24.708;2022-09-09T03:27:09;18.13;;;16.23;;
2680;SDS011;1350;42.134;24.708;2022-09-09T03:29:35;21.17;;;16.87;;
2680;SDS011;1350;42.134;24.708;2022-09-09T03:32:02;17.97;;;16.00;;
2680;SDS011;1350;42.134;24.708;2022-09-09T03:34:29;26.03;;;16.57;;
2680;SDS011;1350;42.134;24.708;2022-09-09T03:36:57;20.10;;;16.90;;
2680;SDS011;1350;42.134;24.708;2022-09-09T03:39:24;18.83;;;16.97;;
2680;SDS011;1350;42.134;24.708;2022-09-09T03:41:51;21.33;;;16.70;;
2680;SDS011;1350;42.134;24.708;2022-09-09T03:44:18;20.53;;;17.30;;
2680;SDS011;1350;42.134;24.708;2022-09-09T03:46:44;22.23;;;17.70;;
2680;SDS011;1350;42.134;24.708;2022-09-09T03:49:11;17.97;;;16.17;;
2680;SDS011;1350;42.134;24.708;2022-09-09T03:51:38;17.63;;;16.00;;
2680;SDS011;1350;42.134;24.708;2022-09-09T03:54:06;20.33;;;16.97;;
2680;SDS011;1350;42.134;24.708;2022-09-09T03:56:35;22.83;;;18.23;;
2680;SDS011;1350;42.134;24.708;2022-09-09T03:59:02;23.53;;;17.93;;
2680;SDS011;1350;42.134;24.708;2022-09-09T04:04:46;27.70;;;18.23;;
2680;SDS011;1350;42.134;24.708;2022-09-09T04:07:43;24.00;;;16.67;;
2680;SDS011;1350;42.134;24.708;2022-09-09T04:10:11;27.27;;;17.40;;
2680;SDS011;1350;42.134;24.708;2022-09-09T04:12:38;24.73;;;20.00;;
2680;SDS011;1350;42.134;24.708;2022-09-09T04:15:06;21.67;;;16.67;;
2680;SDS011;1350;42.134;24.708;2022-09-09T04:17:33;39.23;;;19.43;;
2680;SDS011;1350;42.134;24.708;2022-09-09T04:20:01;22.47;;;17.70;;
2680;SDS011;1350;42.134;24.708;2022-09-09T04:22:28;24.57;;;16.47;;
2680;SDS011;1350;42.134;24.708;2022-09-09T04:24:55;51.73;;;17.30;;
2680;SDS011;1350;42.134;24.708;2022-09-09T04:27:23;29.60;;;18.33;;
2680;SDS011;1350;42.134;24.708;2022-09-09T04:29:50;29.53;;;17.10;;
2680;SDS011;1350;42.134;24.708;2022-09-09T04:32:16;41.70;;;18.30;;
2680;SDS011;1350;42.134;24.708;2022-09-09T04:34:43;51.27;;;19.67;;
2680;SDS011;1350;42.134;24.708;2022-09-09T04:37:11;22.77;;;15.80;;
2680;SDS011;1350;42.134;24.708;2022-09-09T04:39:37;20.57;;;14.60;;
2680;SDS011;1350;42.134;24.708;2022-09-09T04:42:04;18.73;;;15.90;;
2680;SDS011;1350;42.134;24.708;2022-09-09T04:44:33;16.53;;;13.27;;
2680;SDS011;1350;42.134;24.708;2022-09-09T04:47:00;22.33;;;14.80;;
2680;SDS011;1350;42.134;24.708;2022-09-09T04:49:27;23.37;;;15.70;;
2680;SDS011;1350;42.134;24.708;2022-09-09T04:51:56;18.43;;;15.43;;
2680;SDS011;1350;42.134;24.708;2022-09-09T04:54:22;20.80;;;13.80;;
2680;SDS011;1350;42.134;24.708;2022-09-09T04:56:50;36.03;;;15.97;;
2680;SDS011;1350;42.134;24.708;2022-09-09T04:59:17;32.03;;;16.27;;
2680;SDS011;1350;42.134;24.708;2022-09-09T05:01:45;17.80;;;13.80;;
2680;SDS011;1350;42.134;24.708;2022-09-09T05:04:12;26.20;;;15.23;;
2680;SDS011;1350;42.134;24.708;2022-09-09T05:06:39;33.33;;;14.87;;
2680;SDS011;1350;42.134;24.708;2022-09-09T05:09:05;25.40;;;13.70;;
2680;SDS011;1350;42.134;24.708;2022-09-09T05:11:32;17.33;;;13.47;;
2680;SDS011;1350;42.134;24.708;2022-09-09T05:14:01;31.90;;;15.33;;
2680;SDS011;1350;42.134;24.708;2022-09-09T05:16:29;25.23;;;14.33;;
2680;SDS011;1350;42.134;24.708;2022-09-09T05:18:57;48.00;;;16.63;;
2680;SDS011;1350;42.134;24.708;2022-09-09T05:21:25;33.07;;;14.00;;
2680;SDS011;1350;42.134;24.708;2022-09-09T05:23:53;20.30;;;12.10;;
2680;SDS011;1350;42.134;24.708;2022-09-09T05:26:20;33.07;;;12.80;;
2680;SDS011;1350;42.134;24.708;2022-09-09T05:28:49;20.00;;;12.27;;
2680;SDS011;1350;42.134;24.708;2022-09-09T05:31:16;18.07;;;11.63;;
2680;SDS011;1350;42.134;24.708;2022-09-09T05:33:44;19.07;;;12.13;;
2680;SDS011;1350;42.134;24.708;2022-09-09T05:36:15;17.20;;;10.93;;
2680;SDS011;1350;42.134;24.708;2022-09-09T05:38:43;16.00;;;10.97;;
2680;SDS011;1350;42.134;24.708;2022-09-09T05:41:10;14.40;;;10.77;;
2680;SDS011;1350;42.134;24.708;2022-09-09T05:43:38;56.10;;;25.20;;
2680;SDS011;1350;42.134;24.708;2022-09-09T05:46:05;48.00;;;16.43;;
2680;SDS011;1350;42.134;24.708;2022-09-09T05:48:34;20.93;;;13.80;;
2680;SDS011;1350;42.134;24.708;2022-09-09T05:51:02;41.53;;;27.50;;
2680;SDS011;1350;42.134;24.708;2022-09-09T05:53:33;54.53;;;24.10;;
2680;SDS011;1350;42.134;24.708;2022-09-09T05:56:00;22.87;;;11.10;;
2680;SDS011;1350;42.134;24.708;2022-09-09T05:58:29;17.03;;;10.20;;
2680;SDS011;1350;42.134;24.708;2022-09-09T06:01:03;34.17;;;16.90;;
2680;SDS011;1350;42.134;24.708;2022-09-09T06:03:32;27.90;;;13.60;;
2680;SDS011;1350;42.134;24.708;2022-09-09T06:05:59;16.30;;;11.20;;
2680;SDS011;1350;42.134;24.708;2022-09-09T06:08:26;25.10;;;11.57;;
2680;SDS011;1350;42.134;24.708;2022-09-09T06:11:00;20.83;;;10.37;;
2680;SDS011;1350;42.134;24.708;2022-09-09T06:13:28;14.30;;;10.23;;
2680;SDS011;1350;42.134;24.708;2022-09-09T06:15:55;15.53;;;9.10;;
2680;SDS011;1350;42.134;24.708;2022-09-09T06:18:21;13.87;;;9.20;;
2680;SDS011;1350;42.134;24.708;2022-09-09T06:20:58;11.87;;;8.77;;
2680;SDS011;1350;42.134;24.708;2022-09-09T06:23:26;10.80;;;9.43;;
2680;SDS011;1350;42.134;24.708;2022-09-09T06:26:01;13.67;;;8.47;;
2680;SDS011;1350;42.134;24.708;2022-09-09T06:28:30;12.70;;;9.47;;
2680;SDS011;1350;42.134;24.708;2022-09-09T06:30:57;14.10;;;8.43;;
2680;SDS011;1350;42.134;24.708;2022-09-09T06:33:25;14.03;;;8.47;;
2680;SDS011;1350;42.134;24.708;2022-09-09T06:35:53;11.53;;;8.83;;
2680;SDS011;1350;42.134;24.708;2022-09-09T06:38:22;13.53;;;8.13;;
2680;SDS011;1350;42.134;24.708;2022-09-09T06:40:52;15.20;;;7.50;;
2680;SDS011;1350;42.134;24.708;2022-09-09T06:43:22;19.83;;;8.83;;
2680;SDS011;1350;42.134;24.708;2022-09-09T06:45:55;20.40;;;13.90;;
2680;SDS011;1350;42.134;24.708;2022-09-09T06:48:22;20.60;;;16.50;;
2680;SDS011;1350;42.134;24.708;2022-09-09T06:50:51;17.07;;;10.73;;
2680;SDS011;1350;42.134;24.708;2022-09-09T06:53:19;26.10;;;10.30;;
2680;SDS011;1350;42.134;24.708;2022-09-09T06:55:46;60.93;;;12.40;;
2680;SDS011;1350;42.134;24.708;2022-09-09T06:58:13;64.13;;;17.17;;
2680;SDS011;1350;42.134;24.708;2022-09-09T07:00:41;18.50;;;12.10;;
2680;SDS011;1350;42.134;24.708;2022-09-09T07:03:08;18.90;;;10.90;;
2680;SDS011;1350;42.134;24.708;2022-09-09T07:05:36;27.63;;;9.67;;
2680;SDS011;1350;42.134;24.708;2022-09-09T07:08:03;13.93;;;8.47;;
2680;SDS011;1350;42.134;24.708;2022-09-09T07:10:30;11.93;;;7.93;;
2680;SDS011;1350;42.134;24.708;2022-09-09T07:12:59;27.87;;;9.40;;
2680;SDS011;1350;42.134;24.708;2022-09-09T07:15:26;17.33;;;9.40;;
2680;SDS011;1350;42.134;24.708;2022-09-09T07:17:54;13.87;;;8.37;;
2680;SDS011;1350;42.134;24.708;2022-09-09T07:20:21;14.23;;;8.10;;
2680;SDS011;1350;42.134;24.708;2022-09-09T07:22:48;30.33;;;11.53;;
2680;SDS011;1350;42.134;24.708;2022-09-09T07:25:15;13.40;;;8.40;;
2680;SDS011;1350;42.134;24.708;2022-09-09T07:27:43;14.40;;;8.00;;
2680;SDS011;1350;42.134;24.708;2022-09-09T07:30:10;22.47;;;8.80;;
2680;SDS011;1350;42.134;24.708;2022-09-09T07:32:37;9.63;;;6.67;;
2680;SDS011;1350;42.134;24.708;2022-09-09T07:35:06;13.73;;;7.17;;
2680;SDS011;1350;42.134;24.708;2022-09-09T07:37:35;7.53;;;6.60;;
2680;SDS011;1350;42.134;24.708;2022-09-09T07:40:02;12.90;;;6.83;;
2680;SDS011;1350;42.134;24.708;2022-09-09T07:42:30;9.83;;;7.17;;
2680;SDS011;1350;42.134;24.708;2022-09-09T07:44:57;9.43;;;7.20;;
2680;SDS011;1350;42.134;24.708;2022-09-09T07:47:24;11.60;;;6.73;;
2680;SDS011;1350;42.134;24.708;2022-09-09T07:49:51;8.47;;;7.40;;
2680;SDS011;1350;42.134;24.708;2022-09-09T07:52:19;10.83;;;6.60;;
2680;SDS011;1350;42.134;24.708;2022-09-09T07:54:46;14.47;;;7.53;;
2680;SDS011;1350;42.134;24.708;2022-09-09T07:57:13;15.57;;;6.27;;
2680;SDS011;1350;42.134;24.708;2022-09-09T07:59:40;20.10;;;6.23;;
2680;SDS011;1350;42.134;24.708;2022-09-09T08:02:08;10.57;;;6.43;;
2680;SDS011;1350;42.134;24.708;2022-09-09T08:04:36;11.10;;;6.87;;
2680;SDS011;1350;42.134;24.708;2022-09-09T08:07:03;9.23;;;6.13;;
2680;SDS011;1350;42.134;24.708;2022-09-09T08:09:31;7.87;;;5.47;;
2680;SDS011;1350;42.134;24.708;2022-09-09T08:11:58;10.50;;;6.50;;
2680;SDS011;1350;42.134;24.708;2022-09-09T08:14:26;19.27;;;7.83;;
2680;SDS011;1350;42.134;24.708;2022-09-09T08:16:53;9.37;;;6.33;;
2680;SDS011;1350;42.134;24.708;2022-09-09T08:19:19;12.60;;;5.67;;
2680;SDS011;1350;42.134;24.708;2022-09-09T08:21:46;11.10;;;6.77;;
2680;SDS011;1350;42.134;24.708;2022-09-09T08:24:14;17.40;;;7.20;;
2680;SDS011;1350;42.134;24.708;2022-09-09T08:26:43;11.83;;;6.50;;
2680;SDS011;1350;42.134;24.708;2022-09-09T08:29:12;18.60;;;6.60;;
2680;SDS011;1350;42.134;24.708;2022-09-09T08:31:40;19.07;;;6.93;;
2680;SDS011;1350;42.134;24.708;2022-09-09T08:34:08;9.93;;;6.40;;
2680;SDS011;1350;42.134;24.708;2022-09-09T08:36:36;32.97;;;9.70;;
2680;SDS011;1350;42.134;24.708;2022-09-09T08:39:04;9.67;;;7.30;;
2680;SDS011;1350;42.134;24.708;2022-09-09T08:41:51;11.47;;;6.10;;
2680;SDS011;1350;42.134;24.708;2022-09-09T08:44:41;10.20;;;6.23;;
2680;SDS011;1350;42.134;24.708;2022-09-09T08:47:24;10.40;;;6.70;;
2680;SDS011;1350;42.134;24.708;2022-09-09T08:50:07;11.07;;;7.00;;
2680;SDS011;1350;42.134;24.708;2022-09-09T08:52:44;12.70;;;8.60;;
2680;SDS011;1350;42.134;24.708;2022-09-09T08:55:20;10.10;;;6.97;;
2680;SDS011;1350;42.134;24.708;2022-09-09T08:57:53;9.17;;;6.37;;
2680;SDS011;1350;42.134;24.708;2022-09-09T09:00:22;10.80;;;7.30;;
2680;SDS011;1350;42.134;24.708;2022-09-09T09:02:55;12.33;;;6.73;;
2680;SDS011;1350;42.134;24.708;2022-09-09T09:05:33;11.90;;;7.50;;
2680;SDS011;1350;42.134;24.708;2022-09-09T09:08:05;8.40;;;6.50;;
2680;SDS011;1350;42.134;24.708;2022-09-09T09:10:45;9.80;;;7.37;;
2680;SDS011;1350;42.134;24.708;2022-09-09T09:13:19;8.23;;;5.80;;
2680;SDS011;1350;42.134;24.708;2022-09-09T09:15:50;10.60;;;7.53;;
2680;SDS011;1350;42.134;24.708;2022-09-09T09:18:21;11.60;;;7.00;;
2680;SDS011;1350;42.134;24.708;2022-09-09T09:20:50;9.53;;;6.60;;
2680;SDS011;1350;42.134;24.708;2022-09-09T09:23:32;10.97;;;8.30;;
2680;SDS011;1350;42.134;24.708;2022-09-09T09:26:06;19.80;;;8.07;;
2680;SDS011;1350;42.134;24.708;2022-09-09T09:28:37;9.73;;;6.87;;
2680;SDS011;1350;42.134;24.708;2022-09-09T09:31:07;17.03;;;8.90;;
2680;SDS011;1350;42.134;24.708;2022-09-09T09:33:38;12.03;;;7.20;;
2680;SDS011;1350;42.134;24.708;2022-09-09T09:36:14;10.57;;;7.33;;
2680;SDS011;1350;42.134;24.708;2022-09-09T09:38:51;13.03;;;9.33;;
2680;SDS011;1350;42.134;24.708;2022-09-09T09:41:30;12.90;;;8.53;;
2680;SDS011;1350;42.134;24.708;2022-09-09T09:44:02;13.50;;;9.33;;
2680;SDS011;1350;42.134;24.708;2022-09-09T09:46:29;14.00;;;8.70;;
2680;SDS011;1350;42.134;24.708;2022-09-09T09:48:57;10.97;;;8.80;;
2680;SDS011;1350;42.134;24.708;2022-09-09T09:51:25;18.40;;;10.23;;
2680;SDS011;1350;42.134;24.708;2022-09-09T09:53:54;17.40;;;10.13;;
2680;SDS011;1350;42.134;24.708;2022-09-09T09:56:34;11.07;;;8.70;;
2680;SDS011;1350;42.134;24.708;2022-09-09T09:59:04;11.03;;;8.57;;
2680;SDS011;1350;42.134;24.708;2022-09-09T10:01:31;16.30;;;9.40;;
2680;SDS011;1350;42.134;24.708;2022-09-09T10:04:01;15.90;;;9.20;;
2680;SDS011;1350;42.134;24.708;2022-09-09T10:06:40;14.73;;;10.43;;
2680;SDS011;1350;42.134;24.708;2022-09-09T10:11:49;19.03;;;10.20;;
2680;SDS011;1350;42.134;24.708;2022-09-09T10:14:24;12.53;;;9.40;;
2680;SDS011;1350;42.134;24.708;2022-09-09T10:17:05;13.57;;;10.73;;
2680;SDS011;1350;42.134;24.708;2022-09-09T10:19:42;10.70;;;8.80;;
2680;SDS011;1350;42.134;24.708;2022-09-09T10:22:25;11.90;;;9.10;;
2680;SDS011;1350;42.134;24.708;2022-09-09T10:27:49;12.17;;;10.77;;
2680;SDS011;1350;42.134;24.708;2022-09-09T10:30:35;12.10;;;10.90;;
2680;SDS011;1350;42.134;24.708;2022-09-09T10:33:16;10.87;;;9.73;;
2680;SDS011;1350;42.134;24.708;2022-09-09T10:35:50;14.73;;;10.23;;
2680;SDS011;1350;42.134;24.708;2022-09-09T10:38:24;14.10;;;11.23;;
2680;SDS011;1350;42.134;24.708;2022-09-09T10:41:00;16.80;;;10.53;;
2680;SDS011;1350;42.134;24.708;2022-09-09T10:46:51;13.10;;;9.80;;
2680;SDS011;1350;42.134;24.708;2022-09-09T10:49:37;13.97;;;10.70;;
2680;SDS011;1350;42.134;24.708;2022-09-09T10:52:20;11.47;;;10.23;;
2680;SDS011;1350;42.134;24.708;2022-09-09T10:54:55;13.27;;;10.60;;
2680;SDS011;1350;42.134;24.708;2022-09-09T10:57:26;14.33;;;10.57;;
2680;SDS011;1350;42.134;24.708;2022-09-09T10:59:58;11.97;;;9.60;;
2680;SDS011;1350;42.134;24.708;2022-09-09T11:02:32;16.67;;;10.83;;
2680;SDS011;1350;42.134;24.708;2022-09-09T11:05:01;11.13;;;10.03;;
2680;SDS011;1350;42.134;24.708;2022-09-09T11:07:33;12.80;;;10.20;;
2680;SDS011;1350;42.134;24.708;2022-09-09T11:10:05;12.23;;;10.87;;
2680;SDS011;1350;42.134;24.708;2022-09-09T11:12:44;12.20;;;10.90;;
2680;SDS011;1350;42.134;24.708;2022-09-09T11:15:17;12.83;;;10.40;;
2680;SDS011;1350;42.134;24.708;2022-09-09T11:17:52;13.43;;;12.00;;
2680;SDS011;1350;42.134;24.708;2022-09-09T11:20:22;11.73;;;10.57;;
2680;SDS011;1350;42.134;24.708;2022-09-09T11:22:51;12.63;;;10.80;;
2680;SDS011;1350;42.134;24.708;2022-09-09T11:25:22;16.20;;;10.90;;
2680;SDS011;1350;42.134;24.708;2022-09-09T11:28:00;14.20;;;11.43;;
2680;SDS011;1350;42.134;24.708;2022-09-09T11:30:45;14.20;;;10.40;;
2680;SDS011;1350;42.134;24.708;2022-09-09T11:33:31;12.93;;;10.10;;
2680;SDS011;1350;42.134;24.708;2022-09-09T11:39:07;10.60;;;9.17;;
2680;SDS011;1350;42.134;24.708;2022-09-09T11:41:48;13.40;;;9.50;;
2680;SDS011;1350;42.134;24.708;2022-09-09T11:44:17;11.70;;;9.40;;
2680;SDS011;1350;42.134;24.708;2022-09-09T11:46:50;12.13;;;10.83;;
2680;SDS011;1350;42.134;24.708;2022-09-09T11:49:26;14.70;;;10.00;;
2680;SDS011;1350;42.134;24.708;2022-09-09T11:51:56;17.90;;;16.10;;
2680;SDS011;1350;42.134;24.708;2022-09-09T11:54:28;12.43;;;9.50;;
2680;SDS011;1350;42.134;24.708;2022-09-09T11:56:56;13.27;;;9.90;;
2680;SDS011;1350;42.134;24.708;2022-09-09T11:59:23;17.13;;;10.90;;
2680;SDS011;1350;42.134;24.708;2022-09-09T12:01:54;31.00;;;16.57;;
2680;SDS011;1350;42.134;24.708;2022-09-09T12:04:33;13.27;;;9.60;;
2680;SDS011;1350;42.134;24.708;2022-09-09T12:07:18;10.90;;;9.37;;
2680;SDS011;1350;42.134;24.708;2022-09-09T12:09:55;15.87;;;9.47;;
2680;SDS011;1350;42.134;24.708;2022-09-09T12:12:26;10.17;;;8.13;;
2680;SDS011;1350;42.134;24.708;2022-09-09T12:14:57;11.70;;;8.73;;
2680;SDS011;1350;42.134;24.708;2022-09-09T12:17:29;32.00;;;10.30;;
2680;SDS011;1350;42.134;24.708;2022-09-09T12:20:02;14.23;;;8.87;;
2680;SDS011;1350;42.134;24.708;2022-09-09T12:22:36;11.03;;;9.40;;
2680;SDS011;1350;42.134;24.708;2022-09-09T12:25:17;14.30;;;9.20;;
2680;SDS011;1350;42.134;24.708;2022-09-09T12:27:56;10.70;;;9.30;;
2680;SDS011;1350;42.134;24.708;2022-09-09T12:30:30;10.10;;;9.10;;
2680;SDS011;1350;42.134;24.708;2022-09-09T12:33:01;14.37;;;9.20;;
2680;SDS011;1350;42.134;24.708;2022-09-09T12:35:36;11.33;;;8.90;;
2680;SDS011;1350;42.134;24.708;2022-09-09T12:38:04;11.60;;;9.60;;
2680;SDS011;1350;42.134;24.708;2022-09-09T12:40:36;13.33;;;10.13;;
2680;SDS011;1350;42.134;24.708;2022-09-09T12:43:15;13.00;;;9.77;;
2680;SDS011;1350;42.134;24.708;2022-09-09T12:45:43;11.30;;;9.60;;
2680;SDS011;1350;42.134;24.708;2022-09-09T12:48:11;12.90;;;9.13;;
2680;SDS011;1350;42.134;24.708;2022-09-09T12:50:44;19.43;;;10.53;;
2680;SDS011;1350;42.134;24.708;2022-09-09T12:53:15;21.50;;;12.17;;
2680;SDS011;1350;42.134;24.708;2022-09-09T12:55:49;11.73;;;9.47;;
2680;SDS011;1350;42.134;24.708;2022-09-09T12:58:17;27.73;;;10.80;;
2680;SDS011;1350;42.134;24.708;2022-09-09T13:00:48;18.77;;;9.20;;
2680;SDS011;1350;42.134;24.708;2022-09-09T13:03:17;15.13;;;9.03;;
2680;SDS011;1350;42.134;24.708;2022-09-09T13:05:48;24.97;;;11.00;;
2680;SDS011;1350;42.134;24.708;2022-09-09T13:08:17;16.90;;;9.57;;
2680;SDS011;1350;42.134;24.708;2022-09-09T13:10:47;14.43;;;9.70;;
2680;SDS011;1350;42.134;24.708;2022-09-09T13:13:21;14.10;;;9.30;;
2680;SDS011;1350;42.134;24.708;2022-09-09T13:15:50;27.33;;;11.23;;
2680;SDS011;1350;42.134;24.708;2022-09-09T13:18:21;14.70;;;9.27;;
2680;SDS011;1350;42.134;24.708;2022-09-09T13:20:50;23.27;;;11.00;;
2680;SDS011;1350;42.134;24.708;2022-09-09T13:23:18;20.23;;;11.80;;
2680;SDS011;1350;42.134;24.708;2022-09-09T13:25:54;26.13;;;12.83;;
2680;SDS011;1350;42.134;24.708;2022-09-09T13:28:22;20.60;;;9.10;;
2680;SDS011;1350;42.134;24.708;2022-09-09T13:30:57;18.27;;;10.47;;
2680;SDS011;1350;42.134;24.708;2022-09-09T13:33:34;23.03;;;11.57;;
2680;SDS011;1350;42.134;24.708;2022-09-09T13:36:07;14.27;;;9.10;;
2680;SDS011;1350;42.134;24.708;2022-09-09T13:38:36;12.00;;;8.80;;
2680;SDS011;1350;42.134;24.708;2022-09-09T13:41:04;39.97;;;12.17;;
2680;SDS011;1350;42.134;24.708;2022-09-09T13:43:34;42.27;;;11.93;;
2680;SDS011;1350;42.134;24.708;2022-09-09T13:46:04;24.67;;;10.67;;
2680;SDS011;1350;42.134;24.708;2022-09-09T13:48:53;18.83;;;10.30;;
2680;SDS011;1350;42.134;24.708;2022-09-09T13:51:28;17.20;;;9.70;;
2680;SDS011;1350;42.134;24.708;2022-09-09T13:53:59;19.53;;;11.60;;
2680;SDS011;1350;42.134;24.708;2022-09-09T13:56:26;46.23;;;13.80;;
2680;SDS011;1350;42.134;24.708;2022-09-09T13:58:54;19.17;;;11.30;;
2680;SDS011;1350;42.134;24.708;2022-09-09T14:01:20;18.53;;;12.50;;
2680;SDS011;1350;42.134;24.708;2022-09-09T14:03:48;19.67;;;12.07;;
2680;SDS011;1350;42.134;24.708;2022-09-09T14:06:15;19.33;;;12.43;;
2680;SDS011;1350;42.134;24.708;2022-09-09T14:08:45;15.97;;;12.00;;
2680;SDS011;1350;42.134;24.708;2022-09-09T14:11:12;16.03;;;11.50;;
2680;SDS011;1350;42.134;24.708;2022-09-09T14:13:39;13.80;;;12.30;;
2680;SDS011;1350;42.134;24.708;2022-09-09T14:16:06;25.17;;;11.53;;
2680;SDS011;1350;42.134;24.708;2022-09-09T14:18:33;17.10;;;11.40;;
2680;SDS011;1350;42.134;24.708;2022-09-09T14:21:00;15.67;;;11.00;;
2680;SDS011;1350;42.134;24.708;2022-09-09T14:23:27;17.43;;;12.63;;
2680;SDS011;1350;42.134;24.708;2022-09-09T14:25:56;12.13;;;10.87;;
2680;SDS011;1350;42.134;24.708;2022-09-09T14:28:22;17.70;;;11.40;;
2680;SDS011;1350;42.134;24.708;2022-09-09T14:30:50;19.37;;;12.60;;
2680;SDS011;1350;42.134;24.708;2022-09-09T14:33:17;15.40;;;11.33;;
2680;SDS011;1350;42.134;24.708;2022-09-09T14:35:44;14.37;;;11.20;;
2680;SDS011;1350;42.134;24.708;2022-09-09T14:38:11;15.23;;;11.20;;
2680;SDS011;1350;42.134;24.708;2022-09-09T14:40:38;13.83;;;11.80;;
2680;SDS011;1350;42.134;24.708;2022-09-09T14:43:06;17.93;;;11.60;;
2680;SDS011;1350;42.134;24.708;2022-09-09T14:45:37;17.90;;;11.60;;
2680;SDS011;1350;42.134;24.708;2022-09-09T14:48:04;25.80;;;12.50;;
2680;SDS011;1350;42.134;24.708;2022-09-09T14:50:31;16.70;;;12.23;;
2680;SDS011;1350;42.134;24.708;2022-09-09T14:52:57;13.70;;;11.33;;
2680;SDS011;1350;42.134;24.708;2022-09-09T14:55:24;18.27;;;12.57;;
2680;SDS011;1350;42.134;24.708;2022-09-09T14:57:53;16.40;;;11.70;;
2680;SDS011;1350;42.134;24.708;2022-09-09T15:00:21;16.20;;;12.40;;
2680;SDS011;1350;42.134;24.708;2022-09-09T15:02:51;16.27;;;10.70;;
2680;SDS011;1350;42.134;24.708;2022-09-09T15:05:18;15.23;;;11.50;;
2680;SDS011;1350;42.134;24.708;2022-09-09T15:07:45;23.23;;;11.70;;
2680;SDS011;1350;42.134;24.708;2022-09-09T15:10:13;13.70;;;10.90;;
2680;SDS011;1350;42.134;24.708;2022-09-09T15:12:40;16.97;;;13.17;;
2680;SDS011;1350;42.134;24.708;2022-09-09T15:15:07;16.03;;;11.67;;
2680;SDS011;1350;42.134;24.708;2022-09-09T15:17:36;17.03;;;11.17;;